Terminal Aerodrome Forecast
Issued by NWS

Home | Current Version | Previous Version | Text Only | Print | Product List | Glossary On
Versions: 1 2 3 4 5 6 7 8 9 10 11 12 13 14 15 16 17 18 19 20 21 22
000
FTUS46 KLOX 220500
TAFOXR
TAF
KOXR 220534Z 2206/2306 VRB03KT P6SM SKC
     FM221000 VRB03KT 5SM BR OVC008
     FM221700 26007KT P6SM SCT012
     FM222000 27012KT P6SM SKC
     FM230400 28006KT P6SM SKC=

USA.gov is the U.S. government's official web portal to all federal, state and local government web resources and services.